Time;durP1;ratioP1;P1;durP2;ratioP2;P2;SDS_P1;SDS_P2;PMS_P1;PMS_P2;Temp;Humidity;BMP_temperature;BMP_pressure;BME280_temperature;BME280_humidity;BME280_pressure;Samples;Min_cycle;Max_cycle;Signal;HPM_P1;HPM_P2
2021/12/01 05:32:34;;;;;;;;;0.00;0.00;;;;;9.61;81.43;99802.31;4949894;28;45717;-58
2021/12/01 05:34:59;;;;;;;;;1.00;0.00;;;;;9.61;80.79;99802.31;4940420;28;45299;-58
2021/12/01 05:37:25;;;;;;;;;0.00;0.00;;;;;9.67;81.13;99810.00;4956431;28;46043;-58
2021/12/01 05:39:52;;;;;;;;;0.00;0.00;;;;;9.59;81.61;99801.53;4946274;28;45699;-59
2021/12/01 05:42:17;;;;;;;;;0.00;0.00;;;;;9.59;81.17;99785.50;4941425;28;45353;-58
2021/12/01 05:44:43;;;;;;;;;0.00;0.00;;;;;9.69;80.67;99779.53;4940823;28;45279;-58
2021/12/01 05:47:10;;;;;;;;;0.00;0.00;;;;;9.73;80.75;99777.53;4941201;28;45481;-57
2021/12/01 05:49:41;;;;;;;;;0.00;0.00;;;;;9.78;80.99;99787.00;4940244;28;45655;-58
2021/12/01 05:52:08;;;;;;;;;0.00;0.00;;;;;9.75;80.48;99781.84;4941271;28;45521;-58
2021/12/01 05:54:33;;;;;;;;;0.75;0.00;;;;;9.76;81.23;99777.34;4940753;28;45522;-58
2021/12/01 05:56:59;;;;;;;;;0.00;0.00;;;;;9.76;81.33;99778.22;4941151;28;46367;-58
2021/12/01 05:59:24;;;;;;;;;0.00;0.00;;;;;9.74;81.06;99769.41;4941009;28;45313;-59
2021/12/01 06:01:50;;;;;;;;;0.00;0.00;;;;;9.79;81.34;99766.44;4941265;28;45340;-58
2021/12/01 06:04:15;;;;;;;;;0.25;0.00;;;;;9.55;81.80;99743.78;4940945;28;45232;-58
2021/12/01 06:06:40;;;;;;;;;1.50;0.00;;;;;9.73;81.65;99756.09;4940534;28;46213;-59
2021/12/01 06:09:06;;;;;;;;;0.00;0.00;;;;;9.73;82.06;99751.63;4940863;28;47856;-58
2021/12/01 06:11:31;;;;;;;;;0.00;0.00;;;;;9.78;82.06;99733.47;4941474;28;45461;-58
2021/12/01 06:13:57;;;;;;;;;0.50;0.00;;;;;9.66;82.58;99736.00;4940730;28;45410;-57
2021/12/01 06:16:23;;;;;;;;;0.00;0.00;;;;;9.61;82.31;99719.38;4940539;28;46258;-57
2021/12/01 06:18:49;;;;;;;;;0.00;0.00;;;;;9.77;82.54;99738.94;4940296;28;45385;-58
2021/12/01 06:21:16;;;;;;;;;0.25;0.00;;;;;9.78;82.55;99721.94;4940700;28;45282;-58
2021/12/01 06:23:42;;;;;;;;;0.00;0.00;;;;;9.85;81.67;99710.75;4940634;28;45379;-58
2021/12/01 06:26:07;;;;;;;;;0.00;0.00;;;;;9.87;82.09;99719.53;4940661;28;46167;-58
2021/12/01 06:28:32;;;;;;;;;0.00;0.00;;;;;9.86;81.92;99716.97;4940203;28;45344;-59
2021/12/01 06:30:58;;;;;;;;;0.00;0.00;;;;;9.76;82.09;99697.91;4948827;28;45378;-57
2021/12/01 06:33:23;;;;;;;;;0.00;0.00;;;;;9.74;82.79;99702.50;4939874;28;45389;-58
2021/12/01 06:35:51;;;;;;;;;0.00;0.00;;;;;9.82;82.89;99723.44;4940326;28;46704;-59
2021/12/01 06:38:17;;;;;;;;;1.00;0.00;;;;;9.81;82.92;99706.53;4940319;28;45370;-59
2021/12/01 06:40:43;;;;;;;;;0.00;0.00;;;;;9.88;83.13;99697.16;4940259;28;45703;-58
2021/12/01 06:43:09;;;;;;;;;0.50;0.00;;;;;9.79;82.92;99681.66;4940452;28;45639;-59
2021/12/01 06:45:34;;;;;;;;;0.00;0.00;;;;;9.83;82.62;99675.19;4940003;28;45380;-58
2021/12/01 06:48:00;;;;;;;;;0.00;0.00;;;;;9.93;82.35;99677.31;4940419;28;45403;-59
2021/12/01 06:50:25;;;;;;;;;0.00;0.00;;;;;9.97;82.84;99689.53;4939656;28;45398;-58
2021/12/01 06:52:50;;;;;;;;;0.00;0.00;;;;;9.87;83.22;99695.44;4940143;28;45639;-59
2021/12/01 06:55:16;;;;;;;;;0.25;0.00;;;;;9.88;83.38;99689.13;4938621;28;46162;-59
2021/12/01 06:57:42;;;;;;;;;0.00;0.00;;;;;9.84;83.25;99662.66;4940358;28;45308;-58
2021/12/01 07:00:11;;;;;;;;;0.00;0.00;;;;;9.95;83.28;99664.69;4940043;28;45482;-58
2021/12/01 07:02:36;;;;;;;;;0.00;0.00;;;;;9.97;83.53;99666.31;4940021;28;45510;-53
2021/12/01 07:05:03;;;;;;;;;0.00;0.00;;;;;10.03;83.45;99667.78;4939991;28;47541;-55
2021/12/01 07:07:29;;;;;;;;;0.00;0.00;;;;;10.00;83.53;99660.78;4940141;28;45760;-52
2021/12/01 07:09:55;;;;;;;;;0.00;0.00;;;;;10.00;84.09;99662.59;4939891;28;45405;-53
2021/12/01 07:12:20;;;;;;;;;0.00;0.00;;;;;10.08;83.79;99671.88;4939961;28;46073;-51
2021/12/01 07:14:46;;;;;;;;;0.00;0.00;;;;;10.10;83.73;99664.63;4939230;28;45376;-52
2021/12/01 07:17:11;;;;;;;;;0.00;0.00;;;;;10.11;83.41;99674.38;4940161;28;45231;-51
2021/12/01 07:19:37;;;;;;;;;0.00;0.00;;;;;10.11;83.83;99662.81;4939283;28;45355;-53
2021/12/01 07:22:02;;;;;;;;;0.25;0.00;;;;;10.18;83.92;99667.72;4939902;28;45429;-49
2021/12/01 07:24:29;;;;;;;;;0.00;0.00;;;;;10.21;83.35;99650.59;4939316;28;45327;-54
2021/12/01 07:26:55;;;;;;;;;0.00;0.00;;;;;10.32;83.34;99663.31;4939381;28;45359;-56
2021/12/01 07:29:20;;;;;;;;;0.00;0.00;;;;;10.28;82.96;99668.03;4939864;28;45442;-56
2021/12/01 07:31:48;;;;;;;;;0.00;0.00;;;;;10.34;82.74;99656.06;4947420;28;45523;-54
2021/12/01 07:34:13;;;;;;;;;0.00;0.00;;;;;10.39;82.63;99667.34;4938578;28;46249;-54
2021/12/01 07:36:39;;;;;;;;;0.00;0.00;;;;;10.46;82.54;99650.78;4939237;28;45510;-52
2021/12/01 07:39:04;;;;;;;;;0.00;0.00;;;;;10.46;81.74;99666.03;4939291;28;45303;-50
2021/12/01 07:41:29;;;;;;;;;0.00;0.00;;;;;10.57;81.28;99671.56;4939527;28;45398;-55
2021/12/01 07:43:55;;;;;;;;;1.00;0.00;;;;;10.54;82.02;99667.28;4939125;28;45930;-50
2021/12/01 07:46:20;;;;;;;;;0.00;0.00;;;;;10.52;81.92;99669.19;4939474;28;45411;-54
2021/12/01 07:48:47;;;;;;;;;0.00;0.00;;;;;10.54;81.86;99661.91;4939638;28;45271;-53
2021/12/01 07:51:12;;;;;;;;;0.00;0.00;;;;;10.60;81.81;99666.00;4939132;28;45638;-52
2021/12/01 07:53:38;;;;;;;;;0.00;0.00;;;;;10.59;81.48;99661.59;4939329;28;46967;-53
2021/12/01 07:56:05;;;;;;;;;0.00;0.00;;;;;10.68;80.99;99662.84;4939116;28;45580;-53
2021/12/01 07:58:30;;;;;;;;;0.00;0.00;;;;;10.70;80.87;99663.63;4939385;28;45378;-53
2021/12/01 08:00:55;;;;;;;;;0.00;0.00;;;;;10.67;81.06;99655.75;4937591;28;45422;-54
2021/12/01 08:03:21;;;;;;;;;0.00;0.00;;;;;10.77;80.64;99663.13;4939054;28;51691;-53
2021/12/01 08:05:46;;;;;;;;;0.00;0.00;;;;;10.80;80.67;99652.19;4938764;28;45336;-54
2021/12/01 08:08:12;;;;;;;;;0.00;0.00;;;;;10.82;80.83;99647.59;4939251;28;45375;-54
2021/12/01 08:10:37;;;;;;;;;0.00;0.00;;;;;10.85;80.09;99641.19;4938592;28;45522;-50
2021/12/01 08:13:04;;;;;;;;;0.00;0.00;;;;;10.92;80.30;99642.50;4939160;28;45924;-53
2021/12/01 08:15:30;;;;;;;;;0.00;0.00;;;;;10.95;80.15;99639.63;4938826;28;45453;-51
2021/12/01 08:17:55;;;;;;;;;0.00;0.00;;;;;10.96;79.82;99644.91;4939356;28;45587;-52
2021/12/01 08:20:21;;;;;;;;;0.00;0.00;;;;;10.90;80.34;99639.91;4938461;28;45470;-52
2021/12/01 08:22:46;;;;;;;;;0.00;0.00;;;;;10.86;80.14;99629.50;4939000;28;45268;-55
2021/12/01 08:25:13;;;;;;;;;0.25;0.00;;;;;10.92;79.82;99638.00;4938489;28;45300;-52
2021/12/01 08:27:38;;;;;;;;;0.00;0.00;;;;;10.90;79.86;99628.31;4937740;28;45288;-51
2021/12/01 08:30:06;;;;;;;;;0.00;0.00;;;;;10.82;79.70;99628.81;4938592;28;45466;-54
2021/12/01 08:32:32;;;;;;;;;0.75;0.00;;;;;10.95;79.52;99631.59;4923752;28;45366;-55
2021/12/01 08:34:57;;;;;;;;;0.25;0.00;;;;;10.95;79.37;99619.03;4919291;28;45586;-52
2021/12/01 08:37:23;;;;;;;;;0.00;0.00;;;;;10.97;79.24;99618.94;4918653;28;45476;-55
2021/12/01 08:39:50;;;;;;;;;0.00;0.00;;;;;10.91;79.30;99622.00;4919580;28;45442;-52
2021/12/01 08:42:20;;;;;;;;;0.00;0.00;;;;;10.85;79.30;99627.78;4919247;28;48009;-51
2021/12/01 08:44:48;;;;;;;;;0.00;0.00;;;;;10.97;79.47;99627.00;4919754;28;45469;-53
2021/12/01 08:47:15;;;;;;;;;0.00;0.00;;;;;11.06;79.03;99626.34;4919819;28;45335;-53
2021/12/01 08:49:42;;;;;;;;;0.00;0.00;;;;;11.08;78.82;99624.44;4919408;28;45394;-53
2021/12/01 08:52:08;;;;;;;;;0.00;0.00;;;;;11.15;78.25;99633.81;4919560;28;45367;-53
2021/12/01 08:54:34;;;;;;;;;0.75;0.00;;;;;11.17;78.43;99637.25;4919221;28;45426;-54
2021/12/01 08:56:59;;;;;;;;;0.00;0.00;;;;;11.22;78.17;99629.78;4919663;28;45725;-53
2021/12/01 08:59:25;;;;;;;;;1.00;0.00;;;;;11.16;78.07;99627.47;4919132;28;45495;-54
2021/12/01 09:01:50;;;;;;;;;0.25;0.00;;;;;11.25;77.48;99634.91;4919387;28;46190;-51
2021/12/01 09:04:16;;;;;;;;;0.00;0.00;;;;;11.27;76.77;99632.16;4919861;28;45415;-54
2021/12/01 09:06:41;;;;;;;;;0.00;0.00;;;;;11.35;76.85;99636.03;4918985;28;45442;-52
2021/12/01 09:09:07;;;;;;;;;1.50;0.00;;;;;11.35;75.92;99646.78;4919477;28;45336;-54
2021/12/01 09:11:32;;;;;;;;;0.00;0.00;;;;;11.42;75.92;99635.63;4918926;28;46179;-53
2021/12/01 09:13:58;;;;;;;;;0.00;0.00;;;;;11.53;75.34;99635.78;4922500;28;45411;-53
2021/12/01 09:16:23;;;;;;;;;0.00;0.00;;;;;11.66;74.66;99639.31;4920910;28;45402;-54
2021/12/01 09:18:49;;;;;;;;;0.00;0.00;;;;;11.77;74.14;99639.50;4922431;28;45912;-55
2021/12/01 09:21:14;;;;;;;;;0.00;0.00;;;;;11.79;73.30;99639.41;4921858;28;46203;-56
2021/12/01 09:23:39;;;;;;;;;2.00;0.00;;;;;11.82;72.96;99628.47;4922577;28;45317;-57
2021/12/01 09:26:05;;;;;;;;;2.00;1.00;;;;;11.90;73.02;99636.84;4921807;28;45458;-57
2021/12/01 09:28:30;;;;;;;;;0.00;0.00;;;;;11.86;72.33;99636.19;4922238;28;45530;-57
2021/12/01 09:30:57;;;;;;;;;1.00;0.00;;;;;11.94;72.84;99633.84;4929346;28;46122;-55
2021/12/01 09:33:23;;;;;;;;;1.25;0.00;;;;;11.95;71.96;99634.69;4922300;28;45422;-55
2021/12/01 09:35:49;;;;;;;;;0.00;0.00;;;;;11.75;70.87;99626.16;4921571;28;45462;-53
2021/12/01 09:38:17;;;;;;;;;2.25;0.50;;;;;11.81;71.08;99626.75;4922201;28;45449;-52
2021/12/01 09:40:47;;;;;;;;;0.00;0.00;;;;;11.80;71.01;99644.69;4921593;28;46112;-56
2021/12/01 09:43:14;;;;;;;;;0.00;0.00;;;;;11.80;70.34;99642.00;4922171;28;45376;-54
2021/12/01 09:45:40;;;;;;;;;0.50;0.00;;;;;11.68;70.40;99632.03;4921592;28;45275;-52
2021/12/01 09:48:06;;;;;;;;;0.00;0.00;;;;;11.70;70.36;99655.16;4922081;28;45542;-56
2021/12/01 09:50:31;;;;;;;;;1.00;0.00;;;;;11.60;70.85;99648.66;4921224;28;45477;-54
2021/12/01 09:52:57;;;;;;;;;1.00;0.25;;;;;11.68;71.02;99656.19;4922022;28;45438;-55
2021/12/01 09:55:22;;;;;;;;;2.00;0.00;;;;;11.61;71.04;99663.81;4921478;28;45816;-52
2021/12/01 09:58:00;;;;;;;;;0.00;0.00;;;;;11.70;70.81;99665.03;4922126;28;45439;-54
2021/12/01 10:00:27;;;;;;;;;0.00;0.00;;;;;11.75;71.50;99657.53;4921084;28;45350;-57
2021/12/01 10:02:52;;;;;;;;;0.25;0.25;;;;;11.83;71.24;99665.94;4921724;28;45414;-52
2021/12/01 10:08:38;;;;;;;;;0.00;0.00;;;;;11.90;72.09;99664.56;4860491;29;45419;-52
2021/12/01 10:11:25;;;;;;;;;0.00;0.00;;;;;11.84;71.03;99659.59;4861952;29;47474;-51
2021/12/01 10:13:55;;;;;;;;;0.00;0.00;;;;;11.86;71.44;99654.13;4899670;28;45396;-56
2021/12/01 10:16:22;;;;;;;;;0.00;0.00;;;;;11.89;71.05;99672.72;4921620;28;45547;-55
2021/12/01 10:18:57;;;;;;;;;0.00;0.00;;;;;11.86;70.76;99654.13;4921610;28;45386;-54
2021/12/01 10:21:28;;;;;;;;;1.00;0.00;;;;;11.86;69.75;99656.81;4920654;28;46826;-58
2021/12/01 10:24:02;;;;;;;;;0.00;0.00;;;;;11.92;69.68;99656.38;4920919;28;45491;-54
2021/12/01 10:26:33;;;;;;;;;0.00;0.00;;;;;11.97;69.23;99648.88;4920835;28;45478;-56
2021/12/01 10:29:02;;;;;;;;;0.00;0.00;;;;;12.02;69.16;99663.72;4921267;28;46098;-55
2021/12/01 10:31:51;;;;;;;;;0.00;0.00;;;;;12.02;69.28;99660.16;4934474;28;46233;-56
2021/12/01 10:34:30;;;;;;;;;0.00;0.00;;;;;11.95;70.42;99666.94;4940081;28;45473;-54
2021/12/01 10:37:10;;;;;;;;;0.00;0.00;;;;;11.98;70.96;99664.03;4940166;28;45319;-55
2021/12/01 10:39:36;;;;;;;;;0.25;0.00;;;;;11.94;70.93;99668.75;4940422;28;46339;-57
2021/12/01 10:42:07;;;;;;;;;0.50;0.50;;;;;11.80;70.08;99671.53;4939831;28;45316;-52
2021/12/01 10:44:34;;;;;;;;;1.00;0.00;;;;;11.69;69.42;99668.66;4940334;28;45328;-52
2021/12/01 10:47:09;;;;;;;;;1.00;1.00;;;;;11.65;70.03;99656.44;4939913;28;45165;-55
2021/12/01 10:49:42;;;;;;;;;1.00;1.00;;;;;11.66;69.86;99658.97;4939996;28;45518;-54
2021/12/01 10:52:38;;;;;;;;;1.25;0.00;;;;;11.67;70.61;99671.44;4939810;28;45621;-53
2021/12/01 10:55:12;;;;;;;;;0.25;0.25;;;;;11.63;70.07;99667.25;4940104;28;45629;-54
2021/12/01 10:57:41;;;;;;;;;0.25;0.00;;;;;11.68;70.67;99681.22;4940056;28;45323;-55
2021/12/01 11:00:20;;;;;;;;;0.00;0.00;;;;;11.77;70.51;99665.50;4939583;28;45550;-57
2021/12/01 11:02:45;;;;;;;;;0.00;0.00;;;;;11.89;69.87;99661.97;4930663;28;46906;-53
2021/12/01 11:05:25;;;;;;;;;0.25;0.00;;;;;12.21;69.92;99668.69;4937373;28;45587;-53
2021/12/01 11:07:50;;;;;;;;;1.00;1.00;;;;;12.35;67.80;99660.50;4934745;28;45351;-53
2021/12/01 11:10:20;;;;;;;;;0.00;0.00;;;;;12.47;68.03;99666.84;4939631;28;45529;-54
2021/12/01 11:12:57;;;;;;;;;3.00;1.00;;;;;12.42;67.14;99659.09;4939728;28;46621;-55
2021/12/01 11:15:25;;;;;;;;;1.00;1.00;;;;;12.39;67.65;99671.91;4939769;28;45701;-54
2021/12/01 11:17:52;;;;;;;;;1.25;0.75;;;;;12.29;67.20;99654.69;4938862;28;45656;-53
2021/12/01 11:20:40;;;;;;;;;1.75;1.00;;;;;12.29;67.04;99649.31;4939178;28;45474;-56
2021/12/01 11:23:10;;;;;;;;;1.25;1.00;;;;;12.27;66.78;99662.00;4937665;28;47193;-56
2021/12/01 11:25:36;;;;;;;;;1.25;1.25;;;;;12.18;66.46;99646.50;4939263;28;45476;-52
2021/12/01 11:28:04;;;;;;;;;3.00;1.00;;;;;12.21;66.56;99651.69;4939547;28;45398;-55
2021/12/01 11:30:29;;;;;;;;;1.00;1.00;;;;;12.32;67.37;99655.34;4932215;28;46297;-55
2021/12/01 11:32:55;;;;;;;;;3.25;1.00;;;;;12.39;67.43;99651.25;4936579;28;46170;-53
2021/12/01 11:35:20;;;;;;;;;1.50;1.50;;;;;12.45;66.50;99652.66;4929795;28;45788;-53
2021/12/01 11:37:54;;;;;;;;;3.50;1.00;;;;;12.39;65.43;99650.41;4938820;28;46016;-53
2021/12/01 11:40:20;;;;;;;;;0.75;0.75;;;;;12.36;65.78;99640.72;4939109;28;45445;-55
2021/12/01 11:42:47;;;;;;;;;1.50;1.00;;;;;12.50;66.29;99643.28;4938603;28;45326;-60
2021/12/01 11:45:13;;;;;;;;;1.00;1.00;;;;;12.44;65.12;99624.91;4939285;28;45760;-54
2021/12/01 11:47:41;;;;;;;;;2.00;1.00;;;;;12.46;65.29;99643.63;4938971;28;45441;-51
2021/12/01 11:50:11;;;;;;;;;1.50;1.00;;;;;12.52;65.43;99644.03;4938429;28;45528;-52
2021/12/01 11:52:52;;;;;;;;;4.00;1.00;;;;;12.56;64.71;99650.06;4939025;28;46908;-50
2021/12/01 11:55:47;;;;;;;;;2.00;2.00;;;;;12.49;65.28;99652.34;4939626;28;45844;-59
2021/12/01 11:58:49;;;;;;;;;1.25;0.75;;;;;12.50;64.92;99637.06;4931626;28;45483;-53
2021/12/01 12:01:36;;;;;;;;;1.75;1.00;;;;;12.58;64.89;99631.13;4938554;28;45299;-53
2021/12/01 12:04:01;;;;;;;;;2.25;1.75;;;;;12.53;64.74;99631.44;4928350;28;47496;-55
2021/12/01 12:06:29;;;;;;;;;2.00;1.50;;;;;12.50;65.21;99621.75;4938700;28;45382;-52
2021/12/01 12:09:02;;;;;;;;;1.00;1.00;;;;;12.60;64.37;99640.78;4940151;28;45318;-55
2021/12/01 12:11:46;;;;;;;;;3.00;1.50;;;;;12.68;64.13;99634.84;4939030;28;46002;-53
2021/12/01 12:14:29;;;;;;;;;0.50;0.50;;;;;12.70;63.95;99631.09;4939037;28;46110;-52
2021/12/01 12:17:12;;;;;;;;;0.75;0.75;;;;;12.78;63.73;99643.97;4938623;28;45340;-50
2021/12/01 12:19:46;;;;;;;;;1.00;1.00;;;;;12.88;64.07;99632.44;4938694;28;45333;-51
2021/12/01 12:22:37;;;;;;;;;1.00;1.00;;;;;12.80;63.46;99625.91;4938749;28;45955;-53
2021/12/01 12:25:10;;;;;;;;;3.75;2.75;;;;;12.79;63.46;99627.75;4938563;28;46176;-52
2021/12/01 12:27:42;;;;;;;;;4.25;1.75;;;;;12.85;63.90;99631.81;4932194;28;45524;-53
2021/12/01 12:30:14;;;;;;;;;2.00;1.00;;;;;12.86;62.97;99620.94;4934484;28;45874;-51
2021/12/01 12:32:42;;;;;;;;;0.00;0.00;;;;;12.79;62.17;99627.75;4936076;28;45516;-54
2021/12/01 12:35:14;;;;;;;;;5.25;3.00;;;;;12.89;62.20;99623.41;4935896;28;46205;-52
2021/12/01 12:37:42;;;;;;;;;2.25;1.25;;;;;12.93;61.96;99634.78;4934367;28;45424;-54
2021/12/01 12:40:19;;;;;;;;;3.25;1.75;;;;;12.88;61.56;99621.69;4938322;28;45385;-52
2021/12/01 12:43:10;;;;;;;;;1.00;1.00;;;;;12.94;61.82;99625.75;4938235;28;45758;-52
2021/12/01 12:45:40;;;;;;;;;0.50;0.00;;;;;13.02;61.34;99617.13;4938228;28;45899;-52
2021/12/01 12:48:29;;;;;;;;;0.75;0.00;;;;;12.86;61.59;99620.94;4939115;28;45426;-54
2021/12/01 12:51:14;;;;;;;;;3.00;1.00;;;;;12.75;61.13;99633.47;4942378;28;45620;-50
2021/12/01 12:54:03;;;;;;;;;0.00;0.00;;;;;12.74;61.70;99626.38;4941664;28;45552;-50
2021/12/01 12:56:33;;;;;;;;;0.50;0.50;;;;;12.73;61.44;99621.97;4941493;28;46234;-52
2021/12/01 12:59:28;;;;;;;;;0.00;0.00;;;;;12.72;61.78;99633.69;4940059;28;45485;-55
2021/12/01 13:02:16;;;;;;;;;2.00;1.00;;;;;12.65;61.80;99633.28;4941623;28;45351;-53
2021/12/01 13:05:00;;;;;;;;;4.25;1.00;;;;;12.56;61.71;99623.19;4917710;28;46162;-55
2021/12/01 13:07:29;;;;;;;;;1.50;0.00;;;;;12.57;61.93;99622.22;4941270;28;46042;-52
2021/12/01 13:10:21;;;;;;;;;3.50;0.00;;;;;12.46;61.79;99635.56;4941570;28;45441;-54
2021/12/01 13:13:26;;;;;;;;;1.25;0.75;;;;;12.35;62.24;99625.56;4941516;28;45734;-55
2021/12/01 13:15:52;;;;;;;;;0.25;0.25;;;;;12.31;62.99;99631.28;4937742;28;46433;-56
2021/12/01 13:18:20;;;;;;;;;0.00;0.00;;;;;12.38;61.74;99627.16;4940845;28;47244;-58
2021/12/01 13:20:48;;;;;;;;;2.00;0.00;;;;;12.48;61.97;99637.16;4941443;28;45173;-55
2021/12/01 13:23:29;;;;;;;;;0.75;0.50;;;;;12.53;61.97;99631.44;4941085;28;45629;-54
2021/12/01 13:25:58;;;;;;;;;0.00;0.00;;;;;12.71;61.55;99631.97;4941500;28;45307;-54
2021/12/01 13:28:26;;;;;;;;;1.00;1.00;;;;;12.70;61.50;99635.63;4939915;28;46387;-54
2021/12/01 13:31:00;;;;;;;;;0.50;0.00;;;;;12.70;61.02;99632.94;4950183;28;45389;-53
2021/12/01 13:33:26;;;;;;;;;0.00;0.00;;;;;12.70;61.05;99659.81;4940291;28;45325;-54
2021/12/01 13:35:52;;;;;;;;;0.00;0.00;;;;;12.61;60.54;99647.03;4940819;28;45456;-56
2021/12/01 13:38:33;;;;;;;;;1.00;1.00;;;;;12.53;60.30;99647.59;4940157;28;46643;-54
2021/12/01 13:41:10;;;;;;;;;0.00;0.00;;;;;12.54;60.36;99638.56;4938106;28;45620;-55
2021/12/01 13:43:37;;;;;;;;;0.00;0.00;;;;;12.52;60.32;99649.41;4935812;28;45485;-54
2021/12/01 13:46:03;;;;;;;;;1.00;1.00;;;;;12.43;60.88;99646.50;4939045;28;46265;-56
2021/12/01 13:48:29;;;;;;;;;0.75;0.50;;;;;12.36;60.18;99646.09;4940660;28;46345;-54
2021/12/01 13:51:15;;;;;;;;;2.00;1.00;;;;;12.32;60.32;99651.81;4940676;28;45316;-54
2021/12/01 13:53:41;;;;;;;;;0.75;0.75;;;;;12.26;61.25;99642.31;4940954;28;45311;-53
2021/12/01 13:56:11;;;;;;;;;4.00;0.25;;;;;12.14;62.41;99662.00;4940808;28;45654;-54
2021/12/01 13:58:37;;;;;;;;;1.50;1.00;;;;;11.93;63.39;99652.72;4939572;28;45309;-52
2021/12/01 14:01:06;;;;;;;;;1.00;0.00;;;;;11.92;63.76;99662.63;4941011;28;45408;-54
2021/12/01 14:03:32;;;;;;;;;0.00;0.00;;;;;11.98;64.22;99669.41;4940498;28;45353;-54
2021/12/01 14:06:05;;;;;;;;;0.00;0.00;;;;;12.09;64.37;99664.13;4940938;28;45372;-55
2021/12/01 14:08:32;;;;;;;;;1.25;0.00;;;;;12.21;64.25;99665.13;4939068;28;45385;-52
2021/12/01 14:11:22;;;;;;;;;0.00;0.00;;;;;12.45;63.19;99663.41;4940658;28;45793;-53
2021/12/01 14:13:50;;;;;;;;;1.00;0.00;;;;;12.72;61.83;99641.75;4939761;28;45417;-54
2021/12/01 14:16:20;;;;;;;;;0.00;0.00;;;;;13.03;60.23;99691.47;4939665;28;45625;-53
2021/12/01 14:18:45;;;;;;;;;0.25;0.00;;;;;13.18;59.94;99675.09;4940461;28;46338;-55
2021/12/01 14:21:17;;;;;;;;;0.50;0.00;;;;;13.12;59.79;99671.97;4939850;28;45591;-55
2021/12/01 14:23:51;;;;;;;;;0.00;0.00;;;;;13.20;59.66;99677.69;4940032;28;45682;-53
2021/12/01 14:26:46;;;;;;;;;1.00;1.00;;;;;13.18;58.67;99683.19;4940194;28;45410;-55
2021/12/01 14:29:14;;;;;;;;;2.00;0.50;;;;;13.30;59.72;99678.75;4939993;28;45525;-54
2021/12/01 14:31:43;;;;;;;;;0.00;0.00;;;;;13.07;58.81;99672.34;4948828;28;45298;-54
2021/12/01 14:34:14;;;;;;;;;2.00;0.75;;;;;13.06;58.81;99693.97;4939827;28;45375;-54
2021/12/01 14:36:42;;;;;;;;;1.75;0.75;;;;;12.89;58.96;99679.03;4940207;28;45468;-53
2021/12/01 14:39:18;;;;;;;;;2.00;1.00;;;;;12.77;59.73;99683.47;4939603;28;46320;-55
2021/12/01 14:41:49;;;;;;;;;1.00;1.00;;;;;12.70;59.57;99697.47;4931527;28;45538;-54
2021/12/01 14:44:15;;;;;;;;;1.50;1.00;;;;;12.65;59.54;99694.25;4938479;28;45481;-55
2021/12/01 14:46:41;;;;;;;;;3.25;1.00;;;;;12.65;59.02;99684.38;4939922;28;45657;-54
2021/12/01 14:49:09;;;;;;;;;2.50;1.00;;;;;12.63;59.09;99678.22;4939023;28;46065;-53
2021/12/01 14:51:52;;;;;;;;;2.00;2.00;;;;;12.70;59.08;99675.94;4939961;28;45647;-53
2021/12/01 14:54:21;;;;;;;;;2.50;0.50;;;;;12.65;58.84;99665.53;4939933;28;45538;-56
2021/12/01 14:57:15;;;;;;;;;2.00;2.00;;;;;12.78;58.98;99685.19;4940006;28;46070;-51
2021/12/01 14:59:53;;;;;;;;;2.75;1.75;;;;;12.70;59.15;99673.25;4937635;28;45551;-52
2021/12/01 15:02:25;;;;;;;;;2.50;1.00;;;;;12.65;59.08;99694.25;4939667;28;45715;-55
2021/12/01 15:05:04;;;;;;;;;1.50;1.00;;;;;12.56;58.94;99698.47;4939875;28;45324;-55
2021/12/01 15:07:47;;;;;;;;;2.00;0.75;;;;;12.41;59.21;99697.72;4939840;28;45467;-54
2021/12/01 15:10:22;;;;;;;;;0.25;0.25;;;;;12.24;59.47;99692.66;4939137;28;45387;-53
2021/12/01 15:13:03;;;;;;;;;2.00;0.75;;;;;12.33;59.63;99721.59;4939152;28;45485;-54
2021/12/01 15:15:34;;;;;;;;;2.00;0.50;;;;;12.32;59.40;99703.72;4928300;28;45302;-54
2021/12/01 15:18:04;;;;;;;;;0.50;0.00;;;;;12.24;59.20;99706.09;4938678;28;45333;-57
2021/12/01 15:20:32;;;;;;;;;1.00;0.00;;;;;12.06;59.84;99689.41;4939039;28;46073;-56
2021/12/01 15:23:10;;;;;;;;;1.00;0.00;;;;;11.98;59.71;99683.69;4939158;28;45472;-56
2021/12/01 15:25:39;;;;;;;;;1.50;0.00;;;;;11.98;59.38;99721.31;4939598;28;45765;-54
2021/12/01 15:28:10;;;;;;;;;0.50;0.00;;;;;11.88;59.21;99714.84;4938737;28;45290;-54
2021/12/01 15:30:38;;;;;;;;;0.00;0.00;;;;;11.84;59.25;99725.88;4947348;28;46375;-56
2021/12/01 15:33:07;;;;;;;;;1.00;1.00;;;;;11.74;59.23;99713.06;4938907;28;45647;-54
2021/12/01 15:35:32;;;;;;;;;1.75;1.75;;;;;11.61;60.00;99722.00;4937180;28;45996;-55
2021/12/01 15:37:58;;;;;;;;;5.00;0.50;;;;;11.51;59.92;99719.06;4939204;28;46466;-52
2021/12/01 15:40:24;;;;;;;;;2.75;1.00;;;;;11.51;60.36;99727.13;4938946;28;46379;-55
2021/12/01 15:42:49;;;;;;;;;2.00;0.25;;;;;11.45;59.88;99727.53;4939079;28;45621;-53
2021/12/01 15:45:15;;;;;;;;;1.00;0.00;;;;;11.42;59.90;99727.72;4939541;28;45596;-57
2021/12/01 15:47:41;;;;;;;;;1.00;1.00;;;;;11.34;60.04;99724.69;4939177;28;45426;-55
2021/12/01 15:50:07;;;;;;;;;0.00;0.00;;;;;11.32;60.27;99722.09;4938798;28;46215;-54
2021/12/01 15:52:33;;;;;;;;;1.75;0.50;;;;;11.34;60.75;99720.19;4939143;28;45343;-53
2021/12/01 15:55:00;;;;;;;;;0.75;0.75;;;;;11.36;60.65;99729.00;4938741;28;45308;-53
2021/12/01 15:57:26;;;;;;;;;1.00;0.00;;;;;11.35;60.32;99735.31;4939252;28;45435;-55
2021/12/01 15:59:53;;;;;;;;;2.75;0.50;;;;;11.33;60.50;99747.97;4938680;28;45314;-54
2021/12/01 16:02:18;;;;;;;;;0.50;0.00;;;;;11.25;60.26;99741.38;4939113;28;45410;-56
2021/12/01 16:04:44;;;;;;;;;0.00;0.00;;;;;11.19;60.63;99741.78;4938066;28;45643;-52
2021/12/01 16:07:09;;;;;;;;;1.50;0.25;;;;;11.06;61.16;99733.63;4939074;28;45567;-52
2021/12/01 16:09:35;;;;;;;;;2.50;1.00;;;;;11.04;61.20;99743.63;4938955;28;46276;-54
2021/12/01 16:12:02;;;;;;;;;1.00;1.00;;;;;11.04;61.39;99734.72;4938950;28;45340;-54
2021/12/01 16:14:28;;;;;;;;;1.50;1.50;;;;;10.89;60.91;99740.06;4938849;28;45362;-52
2021/12/01 16:16:53;;;;;;;;;1.00;1.00;;;;;10.87;61.59;99749.19;4938988;28;45421;-53
2021/12/01 16:19:19;;;;;;;;;2.75;0.25;;;;;10.80;61.89;99743.34;4938866;28;45741;-53
2021/12/01 16:21:46;;;;;;;;;4.50;1.00;;;;;10.74;61.67;99740.19;4938992;28;45460;-51
2021/12/01 16:24:11;;;;;;;;;2.00;1.00;;;;;10.57;62.16;99755.50;4942084;28;45410;-52
2021/12/01 16:26:37;;;;;;;;;1.75;0.75;;;;;10.43;62.71;99766.22;4942112;28;45478;-54
2021/12/01 16:29:02;;;;;;;;;4.50;0.00;;;;;10.33;63.29;99757.00;4942101;28;46341;-53
2021/12/01 16:31:29;;;;;;;;;1.00;0.75;;;;;10.32;63.48;99757.94;4944753;28;45350;-53
2021/12/01 16:33:55;;;;;;;;;1.00;1.00;;;;;10.26;63.27;99750.28;4941640;28;45443;-53
2021/12/01 16:36:22;;;;;;;;;2.00;0.00;;;;;10.28;63.24;99759.09;4942550;28;45446;-54
2021/12/01 16:38:48;;;;;;;;;1.00;1.00;;;;;10.27;63.62;99765.41;4942109;28;46094;-53
2021/12/01 16:41:14;;;;;;;;;3.25;1.00;;;;;10.32;63.35;99770.47;4941991;28;45876;-51
2021/12/01 16:43:42;;;;;;;;;1.00;1.00;;;;;10.27;63.39;99775.25;4941749;28;45364;-52
2021/12/01 16:46:08;;;;;;;;;1.50;1.50;;;;;10.17;63.31;99765.09;4929345;28;45309;-54
2021/12/01 16:48:34;;;;;;;;;1.00;1.00;;;;;10.23;63.48;99774.56;4941593;28;46367;-51
2021/12/01 16:51:01;;;;;;;;;1.00;1.00;;;;;10.25;63.30;99778.03;4941797;28;45511;-51
2021/12/01 16:53:26;;;;;;;;;1.75;1.00;;;;;10.22;62.80;99773.72;4941531;28;45430;-50
2021/12/01 16:55:52;;;;;;;;;1.00;0.50;;;;;10.29;62.32;99786.75;4940740;28;45359;-52
2021/12/01 16:58:17;;;;;;;;;1.00;1.00;;;;;10.08;61.69;99765.63;4941079;28;46355;-50
2021/12/01 17:00:45;;;;;;;;;0.00;0.00;;;;;10.13;62.39;99782.25;4941796;28;45427;-50
2021/12/01 17:03:28;;;;;;;;;2.00;0.00;;;;;10.09;62.30;99793.25;4942106;28;45349;-50
2021/12/01 17:05:57;;;;;;;;;2.00;0.25;;;;;10.05;62.18;99787.22;4941617;28;46000;-50
2021/12/01 17:08:30;;;;;;;;;1.00;1.00;;;;;9.91;62.17;99772.91;4941432;28;46147;-53
2021/12/01 17:10:56;;;;;;;;;1.00;1.00;;;;;10.02;62.38;99786.53;4941415;28;45430;-56
2021/12/01 17:13:22;;;;;;;;;1.75;0.00;;;;;10.07;62.38;99804.06;4941511;28;45567;-51
2021/12/01 17:15:49;;;;;;;;;0.75;0.75;;;;;10.04;62.26;99798.88;4941241;28;45334;-50
2021/12/01 17:18:16;;;;;;;;;1.00;0.00;;;;;10.02;62.58;99800.78;4941494;28;47124;-50
2021/12/01 17:20:42;;;;;;;;;6.25;1.00;;;;;10.08;61.72;99800.44;4940168;28;45457;-50